createdAt,value
2018-02-14T00:02:08.262Z,1.60
2018-02-14T00:04:35.907Z,1.70
2018-02-14T00:07:04.343Z,1.60
2018-02-14T00:09:32.332Z,1.50
2018-02-14T00:12:00.315Z,1.50
2018-02-14T00:14:28.030Z,1.50
2018-02-14T00:16:56.019Z,1.50
2018-02-14T00:19:24.339Z,1.40
2018-02-14T00:21:52.697Z,1.40
2018-02-14T00:24:21.684Z,1.20
2018-02-14T00:26:49.496Z,1.20
2018-02-14T00:29:17.557Z,1.20
2018-02-14T00:31:45.315Z,1.20
2018-02-14T00:34:13.307Z,1.30
2018-02-14T00:36:41.299Z,1.30
2018-02-14T00:39:09.005Z,1.30
2018-02-14T00:41:37.171Z,1.30
2018-02-14T00:44:05.309Z,1.20
2018-02-14T00:46:33.723Z,1.20
2018-02-14T00:49:03.348Z,1.20
2018-02-14T00:51:31.754Z,1.20
2018-02-14T00:54:00.858Z,1.20
2018-02-14T00:56:29.391Z,1.20
2018-02-14T00:58:56.982Z,1.10
2018-02-14T01:01:25.534Z,1.00
2018-02-14T01:03:53.510Z,0.90
2018-02-14T01:06:21.773Z,1.00
2018-02-14T01:08:50.213Z,1.00
2018-02-14T01:11:20.144Z,0.50
2018-02-14T01:13:48.146Z,1.00
2018-02-14T01:16:16.128Z,1.00
2018-02-14T01:18:48.616Z,1.00
2018-02-14T01:21:16.226Z,0.90
2018-02-14T01:23:44.601Z,0.90
2018-02-14T01:26:13.050Z,0.90
2018-02-14T01:28:41.437Z,0.90
2018-02-14T01:31:09.822Z,0.80
2018-02-14T01:33:37.434Z,0.80
2018-02-14T01:36:05.909Z,0.80
2018-02-14T01:38:33.800Z,0.80
2018-02-14T01:41:01.894Z,0.80
2018-02-14T01:43:30.280Z,0.70
2018-02-14T01:45:58.266Z,0.70
2018-02-14T01:48:25.994Z,0.70
2018-02-14T01:50:54.027Z,0.60
2018-02-14T01:53:28.219Z,0.70
2018-02-14T01:55:56.215Z,0.70
2018-02-14T01:58:24.586Z,0.70
2018-02-14T02:00:52.970Z,0.70
2018-02-14T02:03:21.002Z,0.70
2018-02-14T02:05:48.612Z,0.60
2018-02-14T02:10:50.586Z,0.60
2018-02-14T02:13:19.298Z,0.50
2018-02-14T02:15:47.254Z,0.50
2018-02-14T02:18:15.650Z,0.50
2018-02-14T02:20:43.669Z,0.50
2018-02-14T02:23:12.212Z,0.50
2018-02-14T02:25:39.859Z,0.40
2018-02-14T02:28:07.890Z,0.40
2018-02-14T02:30:36.293Z,0.50
2018-02-14T02:33:05.863Z,0.50
2018-02-14T02:35:34.234Z,0.50
2018-02-14T02:38:03.642Z,0.40
2018-02-14T02:40:32.142Z,0.40
2018-02-14T02:42:59.863Z,0.30
2018-02-14T02:45:27.445Z,0.30
2018-02-14T02:47:55.026Z,0.40
2018-02-14T02:50:23.070Z,0.30
2018-02-14T02:52:51.686Z,0.30
2018-02-14T02:55:20.613Z,0.30
2018-02-14T02:57:49.026Z,0.10
2018-02-14T03:00:16.755Z,0.00
2018-02-14T03:02:45.051Z,0.10
2018-02-14T03:05:13.450Z,0.10
2018-02-14T03:07:41.599Z,0.00
2018-02-14T03:10:10.010Z,0.00
2018-02-14T03:12:38.406Z,0.00
2018-02-14T03:15:06.421Z,0.00
2018-02-14T03:17:34.400Z,0.00
2018-02-14T03:20:02.374Z,0.00
2018-02-14T03:22:30.774Z,0.10
2018-02-14T03:24:58.840Z,0.00
2018-02-14T03:27:27.223Z,0.00
2018-02-14T03:29:54.903Z,0.00
2018-02-14T03:32:23.797Z,0.00
2018-02-14T03:34:52.207Z,0.10
2018-02-14T03:37:20.258Z,0.00
2018-02-14T03:39:47.954Z,-0.10
2018-02-14T03:42:16.713Z,-0.20
2018-02-14T03:44:44.672Z,-0.30
2018-02-14T03:47:12.708Z,-0.30
2018-02-14T03:49:40.334Z,-0.20
2018-02-14T03:52:08.307Z,-0.30
2018-02-14T03:54:36.820Z,-0.30
2018-02-14T03:57:04.902Z,-0.40
2018-02-14T03:59:33.298Z,-0.40
2018-02-14T04:02:02.034Z,-0.30
2018-02-14T04:04:29.688Z,-0.30
2018-02-14T04:06:57.558Z,-0.40
2018-02-14T04:09:25.297Z,-0.30
2018-02-14T04:11:53.707Z,-0.40
2018-02-14T04:14:21.424Z,-0.40
2018-02-14T04:16:49.194Z,-0.30
2018-02-14T04:19:18.106Z,-0.20
2018-02-14T04:21:46.192Z,-0.30
2018-02-14T04:24:14.656Z,-0.30
2018-02-14T04:26:43.080Z,-0.20
2018-02-14T04:29:11.078Z,-0.20
2018-02-14T04:31:39.496Z,-0.30
2018-02-14T04:34:07.490Z,-0.30
2018-02-14T04:36:35.135Z,-0.30
2018-02-14T04:39:03.221Z,-0.30
2018-02-14T04:41:31.640Z,-0.30
2018-02-14T04:43:59.681Z,-0.30
2018-02-14T04:46:27.784Z,-0.40
2018-02-14T04:48:56.315Z,-0.40
2018-02-14T04:51:24.458Z,-0.50
2018-02-14T08:25:58.812Z,0.70
2018-02-14T08:28:26.825Z,0.80
2018-02-14T08:30:54.473Z,0.90
2018-02-14T08:33:23.997Z,1.00
2018-02-14T08:35:52.374Z,0.80
2018-02-14T08:38:20.737Z,0.80
2018-02-14T08:40:49.127Z,0.90
2018-02-14T08:43:17.469Z,1.10
2018-02-14T08:45:45.874Z,1.10
2018-02-14T08:48:14.357Z,1.10
2018-02-14T08:50:42.799Z,1.30
2018-02-14T08:53:10.761Z,1.20
2018-02-14T08:55:38.357Z,1.30
2018-02-14T08:58:06.022Z,1.30
2018-02-14T09:00:34.116Z,1.20
2018-02-14T09:03:02.005Z,1.40
2018-02-14T09:05:29.998Z,1.40
2018-02-14T09:07:58.332Z,1.60
2018-02-14T09:10:26.687Z,1.70
2018-02-14T09:12:55.149Z,1.80
2018-02-14T09:15:23.495Z,2.00
2018-02-14T09:17:51.481Z,1.90
2018-02-14T09:20:19.095Z,1.70
2018-02-14T09:22:47.119Z,1.80
2018-02-14T09:25:15.017Z,2.00
2018-02-14T09:27:44.250Z,2.10
2018-02-14T09:30:12.387Z,2.20
2018-02-14T09:32:40.783Z,2.00
2018-02-14T09:35:08.936Z,2.10
2018-02-14T09:37:38.485Z,2.20
2018-02-14T09:40:06.080Z,2.50
2018-02-14T09:42:33.676Z,2.70
2018-02-14T09:45:01.571Z,2.80
2018-02-14T09:47:29.206Z,2.80
2018-02-14T09:49:56.814Z,3.20
2018-02-14T09:52:24.461Z,3.10
2018-02-14T09:54:52.991Z,3.20
2018-02-14T09:57:20.994Z,3.20
2018-02-14T09:59:50.310Z,2.90
2018-02-14T10:02:18.304Z,2.60
2018-02-14T10:04:46.665Z,2.60
2018-02-14T10:07:15.889Z,2.80
2018-02-14T10:09:45.754Z,2.80
2018-02-14T10:12:14.112Z,3.00
2018-02-14T10:14:47.411Z,2.90
2018-02-14T10:17:16.300Z,2.80
2018-02-14T10:19:43.901Z,2.70
2018-02-14T10:22:11.899Z,2.50
2018-02-14T10:24:41.579Z,2.50
2018-02-14T10:27:09.178Z,2.90
2018-02-14T10:29:37.152Z,3.00
2018-02-14T10:32:04.755Z,2.90
2018-02-14T10:34:32.347Z,3.30
2018-02-14T10:37:05.495Z,3.30
2018-02-14T10:39:33.128Z,3.50
2018-02-14T10:42:00.742Z,3.80
2018-02-14T10:44:29.108Z,4.00
2018-02-14T10:46:57.493Z,4.20
2018-02-14T10:49:25.206Z,4.30
2018-02-14T10:51:53.096Z,4.20
2018-02-14T10:54:21.458Z,4.40
2018-02-14T10:56:49.087Z,4.50
2018-02-14T10:59:16.687Z,4.60
2018-02-14T11:01:50.419Z,4.90
2018-02-14T11:04:24.108Z,5.20
2018-02-14T11:06:52.462Z,6.00
2018-02-14T11:09:21.035Z,5.90
2018-02-14T11:11:48.704Z,6.20
2018-02-14T11:14:16.304Z,6.30
2018-02-14T11:16:44.361Z,6.20
2018-02-14T11:19:12.083Z,6.30
2018-02-14T11:21:40.785Z,6.90
2018-02-14T11:24:08.439Z,6.90
2018-02-14T11:26:36.020Z,7.10
2018-02-14T11:29:03.638Z,7.30
2018-02-14T11:31:31.219Z,7.50
2018-02-14T11:33:58.816Z,7.30
2018-02-14T11:36:27.143Z,7.80
2018-02-14T11:38:55.450Z,7.80
2018-02-14T11:41:24.594Z,7.80
2018-02-14T11:43:52.191Z,8.10
2018-02-14T11:46:19.848Z,8.30
2018-02-14T11:48:49.312Z,8.50
2018-02-14T11:51:17.132Z,8.90
2018-02-14T11:53:44.771Z,9.10
2018-02-14T11:56:13.187Z,8.80
2018-02-14T11:58:40.886Z,8.80
2018-02-14T12:01:09.230Z,9.30
2018-02-14T12:03:36.851Z,9.30
2018-02-14T12:06:05.192Z,9.80
2018-02-14T12:08:32.815Z,9.80
2018-02-14T12:11:00.523Z,9.80
2018-02-14T12:13:28.282Z,10.30
2018-02-14T12:15:55.998Z,10.40
2018-02-14T12:18:24.081Z,10.40
2018-02-14T12:20:51.695Z,10.40
2018-02-14T12:23:19.273Z,10.70
2018-02-14T12:25:46.989Z,11.00
2018-02-14T12:28:14.619Z,11.30
2018-02-14T12:30:42.405Z,11.00
2018-02-14T12:33:10.276Z,10.90
2018-02-14T12:35:37.957Z,11.10
2018-02-14T12:38:07.174Z,11.20
2018-02-14T12:40:34.829Z,11.20
2018-02-14T12:43:02.856Z,11.70
2018-02-14T12:45:30.661Z,11.70
2018-02-14T12:47:58.249Z,12.00
2018-02-14T12:50:26.736Z,11.60
2018-02-14T12:52:54.354Z,11.50
2018-02-14T12:55:21.994Z,11.50
2018-02-14T12:57:50.587Z,11.90
2018-02-14T13:00:18.275Z,12.10
2018-02-14T13:02:45.839Z,12.50
2018-02-14T13:05:13.585Z,12.90
2018-02-14T13:07:41.313Z,13.30
2018-02-14T13:10:09.054Z,13.80
2018-02-14T13:12:36.719Z,14.20
2018-02-14T13:15:06.494Z,14.40
2018-02-14T13:17:34.122Z,14.30
2018-02-14T13:20:01.765Z,13.70
2018-02-14T13:22:30.121Z,14.20
2018-02-14T13:24:58.513Z,14.80
2018-02-14T13:27:26.852Z,14.40
2018-02-14T13:29:54.467Z,14.40
2018-02-14T13:32:22.160Z,14.70
2018-02-14T13:34:49.756Z,15.10
2018-02-14T13:37:17.453Z,15.60
2018-02-14T13:39:45.106Z,15.80
2018-02-14T13:42:13.243Z,16.10
2018-02-14T13:44:40.894Z,16.10
2018-02-14T13:47:08.487Z,16.20
2018-02-14T13:49:36.080Z,15.90
2018-02-14T13:52:03.702Z,15.90
2018-02-14T13:54:31.364Z,15.60
2018-02-14T13:56:59.021Z,15.20
2018-02-14T13:59:26.931Z,15.40
2018-02-14T14:01:54.556Z,15.70
2018-02-14T14:04:22.142Z,15.60
2018-02-14T14:06:49.745Z,15.30
2018-02-14T14:09:18.137Z,15.80
2018-02-14T14:11:45.730Z,15.70
2018-02-14T14:14:13.730Z,15.60
2018-02-14T14:16:41.307Z,15.80
2018-02-14T14:19:09.649Z,16.10
2018-02-14T14:21:37.305Z,16.00
2018-02-14T14:24:05.069Z,15.70
2018-02-14T14:26:33.477Z,15.30
2018-02-14T14:29:01.134Z,15.30
2018-02-14T14:31:29.533Z,15.70
2018-02-14T14:33:57.937Z,15.60
2018-02-14T14:36:25.541Z,15.60
2018-02-14T14:38:53.207Z,15.90
2018-02-14T14:41:20.815Z,16.10
2018-02-14T14:43:48.401Z,16.50
2018-02-14T14:46:16.158Z,17.00
2018-02-14T14:48:43.752Z,16.80
2018-02-14T14:51:11.328Z,17.20
2018-02-14T14:53:39.898Z,17.20
2018-02-14T14:56:07.865Z,17.20
2018-02-14T14:58:36.311Z,17.10
2018-02-14T15:01:03.923Z,17.10
2018-02-14T15:03:31.531Z,17.20
2018-02-14T15:05:59.188Z,17.30
2018-02-14T15:08:26.785Z,17.20
2018-02-14T15:10:54.385Z,17.20
2018-02-14T15:13:22.868Z,17.40
2018-02-14T15:15:50.463Z,17.40
2018-02-14T15:18:18.071Z,17.40
2018-02-14T15:20:46.421Z,17.30
2018-02-14T15:23:14.079Z,17.20
2018-02-14T15:25:41.675Z,17.20
2018-02-14T15:28:10.121Z,17.20
2018-02-14T15:30:39.348Z,17.20
2018-02-14T15:33:06.969Z,17.00
2018-02-14T15:35:34.860Z,16.80
2018-02-14T15:38:02.520Z,16.70
2018-02-14T15:40:30.132Z,17.00
2018-02-14T15:42:58.576Z,16.60
2018-02-14T15:45:26.955Z,16.30
2018-02-14T15:47:54.597Z,16.30
2018-02-14T15:50:22.183Z,16.20
2018-02-14T15:52:49.785Z,15.90
2018-02-14T15:55:18.419Z,15.40
2018-02-14T15:57:46.033Z,15.20
2018-02-14T16:00:14.394Z,15.20
2018-02-14T16:02:42.566Z,15.00
2018-02-14T16:05:10.919Z,14.50
2018-02-14T16:07:38.923Z,13.90
2018-02-14T16:10:07.396Z,13.10
2018-02-14T16:12:36.548Z,12.20
2018-02-14T16:15:04.260Z,11.50
2018-02-14T16:17:32.714Z,10.90
2018-02-14T16:20:00.814Z,10.20
2018-02-14T16:22:29.183Z,9.70
2018-02-14T16:24:58.057Z,9.60
2018-02-14T16:27:25.692Z,9.40
2018-02-14T16:29:54.097Z,9.10
2018-02-14T16:32:22.447Z,8.60
2018-02-14T16:34:50.827Z,8.40
2018-02-14T16:37:19.179Z,8.40
2018-02-14T16:39:46.873Z,8.40
2018-02-14T16:42:14.470Z,8.30
2018-02-14T16:44:42.831Z,8.10
2018-02-14T16:47:10.447Z,7.90
2018-02-14T16:49:38.500Z,7.80
2018-02-14T16:52:07.076Z,7.80
2018-02-14T16:54:35.119Z,7.70
2018-02-14T16:57:03.255Z,7.70
2018-02-14T16:59:31.625Z,7.40
2018-02-14T17:01:59.208Z,7.20
2018-02-14T17:04:27.628Z,7.20
2018-02-14T17:06:55.621Z,7.10
2018-02-14T17:09:24.182Z,7.10
2018-02-14T17:11:52.576Z,7.00
2018-02-14T17:14:21.708Z,6.90
2018-02-14T17:16:51.011Z,6.80
2018-02-14T17:19:19.036Z,6.60
2018-02-14T17:21:47.452Z,6.50
2018-02-14T17:24:15.784Z,6.50
2018-02-14T17:26:45.011Z,6.50
2018-02-14T17:29:12.690Z,6.40
2018-02-14T17:31:41.082Z,6.30
2018-02-14T17:34:09.479Z,6.20
2018-02-14T17:36:37.880Z,6.20
2018-02-14T17:39:07.093Z,6.10
2018-02-14T17:41:34.703Z,6.00
2018-02-14T17:44:02.749Z,6.00
2018-02-14T17:46:31.202Z,6.00
2018-02-14T17:48:58.796Z,6.00
2018-02-14T17:51:26.788Z,5.90
2018-02-14T17:53:55.172Z,5.80
2018-02-14T17:56:23.782Z,5.80
2018-02-14T17:58:52.310Z,5.80
2018-02-14T18:01:20.265Z,5.70
2018-02-14T18:03:48.363Z,6.20
2018-02-14T18:06:15.958Z,5.60
2018-02-14T18:08:44.559Z,5.40
2018-02-14T18:11:12.559Z,5.10
2018-02-14T18:13:40.951Z,5.10
2018-02-14T18:16:12.306Z,5.10
2018-02-14T18:18:40.300Z,5.10
2018-02-14T18:21:08.690Z,5.10
2018-02-14T18:23:37.199Z,5.10
2018-02-14T18:26:06.440Z,5.10
2018-02-14T18:28:34.254Z,5.10
2018-02-14T18:31:02.276Z,5.20
2018-02-14T18:33:30.667Z,5.30
2018-02-14T18:35:59.068Z,5.20
2018-02-14T18:38:27.433Z,5.10
2018-02-14T18:40:55.791Z,5.10
2018-02-14T18:43:24.237Z,5.10
2018-02-14T18:45:52.849Z,5.00
2018-02-14T18:48:21.133Z,5.00
2018-02-14T18:50:49.140Z,5.00
2018-02-14T18:53:16.755Z,4.90
2018-02-14T18:55:45.117Z,4.80
2018-02-14T18:58:13.183Z,4.70
2018-02-14T19:00:41.545Z,4.60
2018-02-14T19:03:09.904Z,4.50
2018-02-14T19:05:38.935Z,4.60
2018-02-14T19:08:06.560Z,4.50
2018-02-14T19:10:34.935Z,4.50
2018-02-14T19:13:02.537Z,4.50
2018-02-14T19:15:30.471Z,4.50
2018-02-14T19:17:58.588Z,4.40
2018-02-14T19:20:26.974Z,4.30
2018-02-14T19:22:54.575Z,4.30
2018-02-14T19:25:22.546Z,4.30
2018-02-14T19:27:51.165Z,4.20
2018-02-14T19:30:19.243Z,4.20
2018-02-14T19:32:47.612Z,4.20
2018-02-14T19:35:15.653Z,4.10
2018-02-14T19:37:44.062Z,4.10
2018-02-14T19:40:11.673Z,4.00
2018-02-14T19:42:39.672Z,3.90
2018-02-14T19:45:08.211Z,3.90
2018-02-14T19:47:36.264Z,3.90
2018-02-14T19:50:03.990Z,3.80
2018-02-14T19:52:32.725Z,3.80
2018-02-14T19:55:00.356Z,3.70
2018-02-14T19:57:28.767Z,3.70
2018-02-14T19:59:57.134Z,3.60
2018-02-14T20:02:25.890Z,3.60
2018-02-14T20:04:54.209Z,3.60
2018-02-14T20:07:22.189Z,3.50
2018-02-14T20:09:50.670Z,3.60
2018-02-14T20:12:19.203Z,3.70
2018-02-14T20:14:47.578Z,3.60
2018-02-14T20:17:15.598Z,3.60
2018-02-14T20:19:43.983Z,3.50
2018-02-14T20:22:13.085Z,3.50
2018-02-14T20:24:41.094Z,3.40
2018-02-14T20:27:09.446Z,3.40
2018-02-14T20:29:37.465Z,3.40
2018-02-14T20:32:05.105Z,3.30
2018-02-14T20:34:33.504Z,3.30
2018-02-14T20:37:01.884Z,3.20
2018-02-14T20:39:30.262Z,3.20
2018-02-14T20:41:59.012Z,3.10
2018-02-14T20:44:27.432Z,3.20
2018-02-14T20:46:55.055Z,3.20
2018-02-14T20:49:22.741Z,3.30
2018-02-14T20:51:50.755Z,3.30
2018-02-14T20:54:19.140Z,3.30
2018-02-14T20:56:47.486Z,3.30
2018-02-14T20:59:15.846Z,3.30
2018-02-14T21:01:44.230Z,3.30
2018-02-14T21:04:12.576Z,3.20
2018-02-14T21:06:41.761Z,3.20
2018-02-14T21:09:09.342Z,3.20
2018-02-14T21:11:36.945Z,3.20
2018-02-14T21:14:04.996Z,3.10
2018-02-14T21:16:33.008Z,3.10
2018-02-14T21:19:00.593Z,3.10
2018-02-14T21:21:28.183Z,3.10
2018-02-14T21:23:56.737Z,3.10
2018-02-14T21:26:24.362Z,3.10
2018-02-14T21:28:51.934Z,3.00
2018-02-14T21:31:20.317Z,2.90
2018-02-14T21:33:47.937Z,3.00
2018-02-14T21:36:16.325Z,2.90
2018-02-14T21:38:44.342Z,2.70
2018-02-14T21:41:11.946Z,2.80
2018-02-14T21:43:40.290Z,2.80
2018-02-14T21:46:07.911Z,2.80
2018-02-14T21:48:36.109Z,2.80
2018-02-14T21:51:04.144Z,2.70
2018-02-14T21:53:31.746Z,2.70
2018-02-14T21:55:59.359Z,2.60
2018-02-14T21:58:26.968Z,2.60
2018-02-14T22:00:55.580Z,2.50
2018-02-14T22:03:23.214Z,2.40
2018-02-14T22:05:51.154Z,2.50
2018-02-14T22:08:18.808Z,2.50
2018-02-14T22:10:46.451Z,2.50
2018-02-14T22:13:14.865Z,2.40
2018-02-14T22:15:42.535Z,2.30
2018-02-14T22:18:10.119Z,2.30
2018-02-14T22:20:38.124Z,2.20
2018-02-14T22:23:05.708Z,2.20
2018-02-14T22:25:33.286Z,2.20
2018-02-14T22:28:00.887Z,2.20
2018-02-14T22:30:29.267Z,2.20
2018-02-14T22:32:57.651Z,2.30
2018-02-14T22:35:26.082Z,2.00
2018-02-14T22:37:53.723Z,2.20
2018-02-14T22:40:21.305Z,2.30
2018-02-14T22:42:48.954Z,2.40
2018-02-14T22:45:16.549Z,2.40
2018-02-14T22:47:44.932Z,2.40
2018-02-14T22:50:13.329Z,2.30
2018-02-14T22:52:41.751Z,2.30
2018-02-14T22:55:09.390Z,2.30
2018-02-14T22:57:37.203Z,2.20
2018-02-14T23:00:04.831Z,2.20
2018-02-14T23:02:32.562Z,2.10
2018-02-14T23:05:00.136Z,2.10
2018-02-14T23:07:27.729Z,2.10
2018-02-14T23:09:55.308Z,2.10
2018-02-14T23:12:23.927Z,2.10
2018-02-14T23:14:51.644Z,2.20
2018-02-14T23:17:19.240Z,2.10
2018-02-14T23:19:47.611Z,2.00
2018-02-14T23:22:16.043Z,2.00
2018-02-14T23:24:43.622Z,2.00
2018-02-14T23:27:11.222Z,2.00
2018-02-14T23:29:38.862Z,2.00
2018-02-14T23:32:07.216Z,2.10
2018-02-14T23:34:34.828Z,2.00
2018-02-14T23:37:02.863Z,2.00
2018-02-14T23:39:30.459Z,1.90
2018-02-14T23:41:58.045Z,1.90
2018-02-14T23:44:25.651Z,2.00
2018-02-14T23:46:54.000Z,1.90
2018-02-14T23:49:21.626Z,1.90
2018-02-14T23:51:49.221Z,2.00
2018-02-14T23:54:16.842Z,2.00
2018-02-14T23:56:44.474Z,1.90
2018-02-14T23:59:12.098Z,1.90
